sensor_id;sensor_type;location;lat;lon;timestamp;pressure;altitude;pressure_sealevel;temperature;humidity
43217;BME280;60511;42.686;23.300;2023-03-01T00:01:48;95177.41;;;23.23;30.34
43217;BME280;60511;42.686;23.300;2023-03-01T00:03:49;95109.63;;;22.92;30.34
43217;BME280;60511;42.686;23.300;2023-03-01T00:05:49;95003.56;;;22.17;30.51
43217;BME280;60511;42.686;23.300;2023-03-01T00:07:53;95172.53;;;23.17;30.53
43217;BME280;60511;42.686;23.300;2023-03-01T00:09:53;95156.34;;;23.17;30.47
43217;BME280;60511;42.686;23.300;2023-03-01T00:11:54;95137.53;;;22.96;30.61
43217;BME280;60511;42.686;23.300;2023-03-01T00:13:57;95157.59;;;23.19;30.53
43217;BME280;60511;42.686;23.300;2023-03-01T00:15:58;95112.47;;;22.95;30.58
43217;BME280;60511;42.686;23.300;2023-03-01T00:17:58;95073.31;;;22.64;30.77
43217;BME280;60511;42.686;23.300;2023-03-01T00:19:58;95104.03;;;22.84;30.69
43217;BME280;60511;42.686;23.300;2023-03-01T00:21:59;95135.66;;;23.09;30.62
43217;BME280;60511;42.686;23.300;2023-03-01T00:23:59;95126.53;;;23.01;30.44
43217;BME280;60511;42.686;23.300;2023-03-01T00:26:00;95140.38;;;23.12;30.45
43217;BME280;60511;42.686;23.300;2023-03-01T00:28:00;95143.97;;;23.16;30.52
43217;BME280;60511;42.686;23.300;2023-03-01T00:30:00;95133.19;;;23.16;30.61
43217;BME280;60511;42.686;23.300;2023-03-01T00:32:01;95119.81;;;23.07;30.76
43217;BME280;60511;42.686;23.300;2023-03-01T00:34:04;95118.53;;;23.04;30.52
43217;BME280;60511;42.686;23.300;2023-03-01T00:36:05;95110.44;;;23.04;30.51
43217;BME280;60511;42.686;23.300;2023-03-01T00:38:06;95125.75;;;23.13;30.59
43217;BME280;60511;42.686;23.300;2023-03-01T00:40:07;95108.09;;;23.03;30.55
43217;BME280;60511;42.686;23.300;2023-03-01T00:42:08;95127.00;;;23.15;30.50
43217;BME280;60511;42.686;23.300;2023-03-01T00:44:09;95127.00;;;23.15;30.74
43217;BME280;60511;42.686;23.300;2023-03-01T00:46:12;94946.13;;;22.04;30.79
43217;BME280;60511;42.686;23.300;2023-03-01T00:48:13;95106.31;;;23.07;30.60
43217;BME280;60511;42.686;23.300;2023-03-01T00:50:13;95135.44;;;23.14;30.37
43217;BME280;60511;42.686;23.300;2023-03-01T00:52:13;95123.16;;;23.16;30.46
43217;BME280;60511;42.686;23.300;2023-03-01T00:54:14;95122.94;;;23.21;30.65
43217;BME280;60511;42.686;23.300;2023-03-01T00:56:14;95110.44;;;23.17;30.40
43217;BME280;60511;42.686;23.300;2023-03-01T00:58:15;95091.75;;;22.99;30.38
43217;BME280;60511;42.686;23.300;2023-03-01T01:00:16;95108.88;;;23.16;30.72
43217;BME280;60511;42.686;23.300;2023-03-01T01:02:16;95014.16;;;22.47;30.53
43217;BME280;60511;42.686;23.300;2023-03-01T01:04:17;95123.16;;;23.16;30.42
43217;BME280;60511;42.686;23.300;2023-03-01T01:06:20;95116.97;;;23.16;30.42
43217;BME280;60511;42.686;23.300;2023-03-01T01:08:21;95117.75;;;23.16;30.46
43217;BME280;60511;42.686;23.300;2023-03-01T01:10:21;95097.81;;;22.96;30.34
43217;BME280;60511;42.686;23.300;2023-03-01T01:12:22;95087.47;;;22.98;30.53
43217;BME280;60511;42.686;23.300;2023-03-01T01:14:22;95124.31;;;23.15;30.66
43217;BME280;60511;42.686;23.300;2023-03-01T01:16:25;95074.78;;;22.86;30.20
43217;BME280;60511;42.686;23.300;2023-03-01T01:18:25;95119.34;;;23.17;30.24
43217;BME280;60511;42.686;23.300;2023-03-01T01:20:26;95110.00;;;23.15;30.53
43217;BME280;60511;42.686;23.300;2023-03-01T01:22:26;95090.63;;;23.13;30.29
43217;BME280;60511;42.686;23.300;2023-03-01T01:24:27;95071.06;;;22.91;30.33
43217;BME280;60511;42.686;23.300;2023-03-01T01:26:29;95083.00;;;23.02;30.20
43217;BME280;60511;42.686;23.300;2023-03-01T01:28:29;95114.72;;;23.18;30.45
43217;BME280;60511;42.686;23.300;2023-03-01T01:30:29;95086.56;;;22.94;30.37
43217;BME280;60511;42.686;23.300;2023-03-01T01:32:30;95099.53;;;23.01;30.51
43217;BME280;60511;42.686;23.300;2023-03-01T01:34:30;95080.06;;;22.95;30.31
43217;BME280;60511;42.686;23.300;2023-03-01T01:36:31;95117.75;;;23.16;30.32
43217;BME280;60511;42.686;23.300;2023-03-01T01:38:32;95095.94;;;22.97;30.29
43217;BME280;60511;42.686;23.300;2023-03-01T01:40:33;95132.84;;;23.17;30.19
43217;BME280;60511;42.686;23.300;2023-03-01T01:42:34;95131.38;;;23.08;30.30
43217;BME280;60511;42.686;23.300;2023-03-01T01:44:34;95118.09;;;23.15;30.29
43217;BME280;60511;42.686;23.300;2023-03-01T01:46:37;95131.59;;;23.15;30.33
43217;BME280;60511;42.686;23.300;2023-03-01T01:48:48;95134.75;;;23.17;30.35
43217;BME280;60511;42.686;23.300;2023-03-01T01:50:55;95100.09;;;23.06;30.65
43217;BME280;60511;42.686;23.300;2023-03-01T01:52:58;95128.22;;;23.30;29.93
43217;BME280;60511;42.686;23.300;2023-03-01T01:57:09;95069.16;;;22.92;34.53
43217;BME280;60511;42.686;23.300;2023-03-01T01:59:11;95099.41;;;23.22;31.78
43217;BME280;60511;42.686;23.300;2023-03-01T02:01:12;94956.56;;;21.94;35.35
43217;BME280;60511;42.686;23.300;2023-03-01T02:03:17;95090.28;;;22.77;36.51
43217;BME280;60511;42.686;23.300;2023-03-01T02:07:47;95055.22;;;22.65;35.70
43217;BME280;60511;42.686;23.300;2023-03-01T02:09:50;95043.19;;;22.75;31.69
43217;BME280;60511;42.686;23.300;2023-03-01T02:11:53;95097.75;;;23.17;35.28
43217;BME280;60511;42.686;23.300;2023-03-01T02:13:54;95076.81;;;23.02;35.62
43217;BME280;60511;42.686;23.300;2023-03-01T02:15:54;94997.09;;;22.43;35.73
43217;BME280;60511;42.686;23.300;2023-03-01T02:17:55;95093.13;;;23.05;39.39
43217;BME280;60511;42.686;23.300;2023-03-01T02:20:16;95092.09;;;22.98;38.28
43217;BME280;60511;42.686;23.300;2023-03-01T02:24:31;95089.06;;;22.75;41.03
43217;BME280;60511;42.686;23.300;2023-03-01T02:26:38;95091.50;;;22.55;39.06
43217;BME280;60511;42.686;23.300;2023-03-01T02:28:42;95092.97;;;22.53;39.50
43217;BME280;60511;42.686;23.300;2023-03-01T02:30:45;95053.59;;;22.27;41.04
43217;BME280;60511;42.686;23.300;2023-03-01T02:33:04;95054.56;;;22.22;40.57
43217;BME280;60511;42.686;23.300;2023-03-01T02:35:05;95046.44;;;22.10;40.56
43217;BME280;60511;42.686;23.300;2023-03-01T02:37:11;95111.63;;;22.45;40.76
43217;BME280;60511;42.686;23.300;2023-03-01T02:39:18;95103.59;;;22.24;41.58
43217;BME280;60511;42.686;23.300;2023-03-01T02:41:20;95065.22;;;22.19;39.92
43217;BME280;60511;42.686;23.300;2023-03-01T02:43:24;95081.63;;;22.14;42.66
43217;BME280;60511;42.686;23.300;2023-03-01T02:45:26;95076.44;;;22.08;42.06
43217;BME280;60511;42.686;23.300;2023-03-01T02:47:27;95112.06;;;22.35;41.90
43217;BME280;60511;42.686;23.300;2023-03-01T02:49:30;95119.59;;;22.21;42.63
43217;BME280;60511;42.686;23.300;2023-03-01T02:55:54;95073.28;;;22.06;42.08
43217;BME280;60511;42.686;23.300;2023-03-01T02:57:55;95121.34;;;22.25;42.73
43217;BME280;60511;42.686;23.300;2023-03-01T02:59:59;95109.69;;;22.34;40.80
43217;BME280;60511;42.686;23.300;2023-03-01T03:02:00;95101.16;;;22.44;39.48
43217;BME280;60511;42.686;23.300;2023-03-01T03:04:04;94895.97;;;21.09;41.51
43217;BME280;60511;42.686;23.300;2023-03-01T03:06:04;95100.94;;;22.49;37.79
43217;BME280;60511;42.686;23.300;2023-03-01T03:08:04;95104.22;;;22.55;38.78
43217;BME280;60511;42.686;23.300;2023-03-01T03:10:11;95106.03;;;22.63;38.60
43217;BME280;60511;42.686;23.300;2023-03-01T03:12:11;95099.25;;;22.44;39.71
43217;BME280;60511;42.686;23.300;2023-03-01T03:14:13;95101.19;;;22.56;39.69
43217;BME280;60511;42.686;23.300;2023-03-01T03:16:15;95111.28;;;22.59;39.78
43217;BME280;60511;42.686;23.300;2023-03-01T03:18:17;95110.16;;;22.48;40.21
43217;BME280;60511;42.686;23.300;2023-03-01T03:20:19;95114.09;;;22.51;40.10
43217;BME280;60511;42.686;23.300;2023-03-01T03:22:20;95097.25;;;22.41;40.71
43217;BME280;60511;42.686;23.300;2023-03-01T03:24:21;95076.81;;;22.19;39.44
43217;BME280;60511;42.686;23.300;2023-03-01T03:26:21;95100.53;;;21.93;42.24
43217;BME280;60511;42.686;23.300;2023-03-01T03:28:21;95074.88;;;21.53;42.67
43217;BME280;60511;42.686;23.300;2023-03-01T03:30:30;95127.63;;;21.54;43.21
43217;BME280;60511;42.686;23.300;2023-03-01T03:32:31;95116.41;;;21.52;43.10
43217;BME280;60511;42.686;23.300;2023-03-01T03:34:31;95118.38;;;21.34;43.96
43217;BME280;60511;42.686;23.300;2023-03-01T03:36:31;94967.31;;;20.34;45.06
43217;BME280;60511;42.686;23.300;2023-03-01T03:38:32;95089.53;;;21.14;43.30
43217;BME280;60511;42.686;23.300;2023-03-01T03:40:34;95111.69;;;21.40;43.59
43217;BME280;60511;42.686;23.300;2023-03-01T03:42:34;95077.38;;;21.07;44.72
43217;BME280;60511;42.686;23.300;2023-03-01T03:44:53;95130.09;;;21.38;44.97
43217;BME280;60511;42.686;23.300;2023-03-01T03:46:54;95129.41;;;21.50;43.80
43217;BME280;60511;42.686;23.300;2023-03-01T03:49:13;95102.09;;;21.31;44.68
43217;BME280;60511;42.686;23.300;2023-03-01T03:51:15;95121.47;;;21.24;44.83
43217;BME280;60511;42.686;23.300;2023-03-01T03:53:16;95083.91;;;21.06;43.66
43217;BME280;60511;42.686;23.300;2023-03-01T03:55:17;95144.78;;;21.50;43.84
43217;BME280;60511;42.686;23.300;2023-03-01T03:57:19;95137.81;;;21.49;44.69
43217;BME280;60511;42.686;23.300;2023-03-01T03:59:21;95088.56;;;21.18;44.65
43217;BME280;60511;42.686;23.300;2023-03-01T04:01:21;95087.59;;;21.23;44.66
43217;BME280;60511;42.686;23.300;2023-03-01T04:03:23;95111.34;;;21.51;45.71
43217;BME280;60511;42.686;23.300;2023-03-01T04:05:23;95106.75;;;21.72;41.71
43217;BME280;60511;42.686;23.300;2023-03-01T04:07:24;95122.09;;;21.93;41.52
43217;BME280;60511;42.686;23.300;2023-03-01T04:09:24;95119.97;;;21.98;41.50
43217;BME280;60511;42.686;23.300;2023-03-01T04:11:24;95090.13;;;22.03;41.27
43217;BME280;60511;42.686;23.300;2023-03-01T04:13:27;95147.78;;;22.11;42.16
43217;BME280;60511;42.686;23.300;2023-03-01T04:15:28;95131.06;;;22.18;42.50
43217;BME280;60511;42.686;23.300;2023-03-01T04:17:29;95088.00;;;21.76;40.03
43217;BME280;60511;42.686;23.300;2023-03-01T04:19:31;95115.19;;;22.04;41.51
43217;BME280;60511;42.686;23.300;2023-03-01T04:21:36;95101.81;;;22.07;40.94
43217;BME280;60511;42.686;23.300;2023-03-01T04:23:37;95127.59;;;22.17;41.52
43217;BME280;60511;42.686;23.300;2023-03-01T04:27:39;95127.59;;;22.17;42.12
43217;BME280;60511;42.686;23.300;2023-03-01T04:29:40;95145.03;;;21.99;42.93
43217;BME280;60511;42.686;23.300;2023-03-01T04:31:40;95095.06;;;21.68;43.37
43217;BME280;60511;42.686;23.300;2023-03-01T04:33:51;95135.97;;;21.82;44.24
43217;BME280;60511;42.686;23.300;2023-03-01T04:35:52;95090.19;;;21.61;44.32
43217;BME280;60511;42.686;23.300;2023-03-01T04:37:52;95123.38;;;21.74;44.37
43217;BME280;60511;42.686;23.300;2023-03-01T04:39:52;95091.59;;;21.38;44.67
43217;BME280;60511;42.686;23.300;2023-03-01T04:41:53;95101.25;;;21.39;42.67
43217;BME280;60511;42.686;23.300;2023-03-01T04:43:53;95097.31;;;21.36;45.01
43217;BME280;60511;42.686;23.300;2023-03-01T04:45:54;95068.41;;;21.24;44.16
43217;BME280;60511;42.686;23.300;2023-03-01T04:47:54;95122.03;;;21.59;45.24
43217;BME280;60511;42.686;23.300;2023-03-01T04:49:58;95086.53;;;21.36;44.55
43217;BME280;60511;42.686;23.300;2023-03-01T04:51:58;95108.56;;;21.59;43.58
43217;BME280;60511;42.686;23.300;2023-03-01T04:54:01;95113.69;;;21.73;45.53
43217;BME280;60511;42.686;23.300;2023-03-01T04:56:02;95114.63;;;21.77;44.46
43217;BME280;60511;42.686;23.300;2023-03-01T04:58:03;95124.41;;;21.61;44.19
43217;BME280;60511;42.686;23.300;2023-03-01T05:00:05;95113.84;;;21.77;43.50
43217;BME280;60511;42.686;23.300;2023-03-01T05:02:19;95108.91;;;21.79;44.83
43217;BME280;60511;42.686;23.300;2023-03-01T05:04:20;95105.56;;;21.61;43.01
43217;BME280;60511;42.686;23.300;2023-03-01T05:06:21;95063.44;;;21.56;43.28
43217;BME280;60511;42.686;23.300;2023-03-01T05:08:21;95086.22;;;21.80;42.19
43217;BME280;60511;42.686;23.300;2023-03-01T05:10:22;95119.19;;;21.98;41.59
43217;BME280;60511;42.686;23.300;2023-03-01T05:12:23;95132.97;;;22.17;41.43
43217;BME280;60511;42.686;23.300;2023-03-01T05:14:23;95088.91;;;22.01;42.21
43217;BME280;60511;42.686;23.300;2023-03-01T05:16:24;95138.47;;;22.21;41.19
43217;BME280;60511;42.686;23.300;2023-03-01T05:18:26;95118.50;;;22.22;41.17
43217;BME280;60511;42.686;23.300;2023-03-01T05:20:28;95116.31;;;22.36;41.09
43217;BME280;60511;42.686;23.300;2023-03-01T05:22:29;95132.25;;;22.29;40.07
43217;BME280;60511;42.686;23.300;2023-03-01T05:24:32;95094.28;;;21.80;41.85
43217;BME280;60511;42.686;23.300;2023-03-01T05:26:33;95118.84;;;21.66;42.62
43217;BME280;60511;42.686;23.300;2023-03-01T05:28:34;95070.78;;;21.47;42.82
43217;BME280;60511;42.686;23.300;2023-03-01T05:30:35;95125.78;;;21.67;43.95
43217;BME280;60511;42.686;23.300;2023-03-01T05:32:35;95104.38;;;21.20;45.14
43217;BME280;60511;42.686;23.300;2023-03-01T05:34:35;95135.38;;;21.26;45.00
43217;BME280;60511;42.686;23.300;2023-03-01T05:36:36;95115.34;;;21.15;46.46
43217;BME280;60511;42.686;23.300;2023-03-01T05:38:38;95131.13;;;21.25;45.42
43217;BME280;60511;42.686;23.300;2023-03-01T05:40:40;95130.16;;;21.30;44.53
43217;BME280;60511;42.686;23.300;2023-03-01T05:43:00;95130.59;;;21.32;45.29
43217;BME280;60511;42.686;23.300;2023-03-01T05:45:02;95101.47;;;21.04;44.84
43217;BME280;60511;42.686;23.300;2023-03-01T05:47:02;95132.53;;;21.22;44.58
43217;BME280;60511;42.686;23.300;2023-03-01T05:49:02;95108.78;;;21.24;44.04
43217;BME280;60511;42.686;23.300;2023-03-01T05:51:04;95081.06;;;21.03;44.92
43217;BME280;60511;42.686;23.300;2023-03-01T05:53:11;95131.13;;;21.25;47.80
43217;BME280;60511;42.686;23.300;2023-03-01T05:55:12;95147.19;;;21.42;44.75
43217;BME280;60511;42.686;23.300;2023-03-01T05:57:12;95137.53;;;21.41;44.49
43217;BME280;60511;42.686;23.300;2023-03-01T05:59:13;94958.31;;;20.30;45.41
43217;BME280;60511;42.686;23.300;2023-03-01T06:01:15;95077.25;;;21.04;45.46
43217;BME280;60511;42.686;23.300;2023-03-01T06:03:16;95145.31;;;21.34;44.71
43217;BME280;60511;42.686;23.300;2023-03-01T06:05:18;94980.53;;;20.48;44.57
43217;BME280;60511;42.686;23.300;2023-03-01T06:07:18;95166.66;;;21.69;44.73
43217;BME280;60511;42.686;23.300;2023-03-01T06:09:19;95139.19;;;21.76;41.78
43217;BME280;60511;42.686;23.300;2023-03-01T06:11:20;95129.09;;;21.73;42.73
43217;BME280;60511;42.686;23.300;2023-03-01T06:13:21;95118.09;;;21.78;41.47
43217;BME280;60511;42.686;23.300;2023-03-01T06:15:23;95166.59;;;21.99;40.74
43217;BME280;60511;42.686;23.300;2023-03-01T06:17:23;95172.91;;;22.24;39.94
43217;BME280;60511;42.686;23.300;2023-03-01T06:19:24;95144.19;;;22.07;42.14
43217;BME280;60511;42.686;23.300;2023-03-01T06:21:24;95141.81;;;22.05;40.92
43217;BME280;60511;42.686;23.300;2023-03-01T06:23:25;95038.84;;;21.45;40.74
43217;BME280;60511;42.686;23.300;2023-03-01T06:25:26;95183.53;;;22.20;41.56
43217;BME280;60511;42.686;23.300;2023-03-01T06:27:27;95141.28;;;21.91;42.93
43217;BME280;60511;42.686;23.300;2023-03-01T06:29:27;95159.34;;;22.12;41.73
43217;BME280;60511;42.686;23.300;2023-03-01T06:31:27;94990.25;;;20.70;43.67
43217;BME280;60511;42.686;23.300;2023-03-01T06:33:28;95146.09;;;21.43;45.10
43217;BME280;60511;42.686;23.300;2023-03-01T06:35:29;95172.09;;;21.31;45.98
43217;BME280;60511;42.686;23.300;2023-03-01T06:37:30;95101.88;;;20.38;48.58
43217;BME280;60511;42.686;23.300;2023-03-01T06:39:31;95185.66;;;21.13;48.62
43217;BME280;60511;42.686;23.300;2023-03-01T06:41:32;95182.50;;;21.11;48.76
43217;BME280;60511;42.686;23.300;2023-03-01T06:43:33;95192.28;;;21.16;49.17
43217;BME280;60511;42.686;23.300;2023-03-01T06:45:34;95137.19;;;20.83;48.49
43217;BME280;60511;42.686;23.300;2023-03-01T06:47:34;95168.63;;;20.92;49.42
43217;BME280;60511;42.686;23.300;2023-03-01T06:49:35;95133.59;;;20.71;50.16
43217;BME280;60511;42.686;23.300;2023-03-01T06:51:36;95121.13;;;20.66;49.25
43217;BME280;60511;42.686;23.300;2023-03-01T06:53:36;95167.78;;;21.09;49.32
43217;BME280;60511;42.686;23.300;2023-03-01T06:55:37;95118.34;;;20.83;47.69
43217;BME280;60511;42.686;23.300;2023-03-01T06:57:37;95090.03;;;20.77;47.47
43217;BME280;60511;42.686;23.300;2023-03-01T06:59:38;95144.50;;;21.13;48.39
43217;BME280;60511;42.686;23.300;2023-03-01T07:01:38;95140.03;;;21.17;47.79
43217;BME280;60511;42.686;23.300;2023-03-01T07:03:39;95138.13;;;21.17;47.78
43217;BME280;60511;42.686;23.300;2023-03-01T07:05:39;95157.38;;;21.28;47.98
43217;BME280;60511;42.686;23.300;2023-03-01T07:07:40;94996.16;;;20.25;47.60
43217;BME280;60511;42.686;23.300;2023-03-01T07:09:40;95192.53;;;21.32;48.17
43217;BME280;60511;42.686;23.300;2023-03-01T07:11:41;95127.66;;;20.86;50.02
43217;BME280;60511;42.686;23.300;2023-03-01T07:13:41;95080.63;;;20.62;48.83
43217;BME280;60511;42.686;23.300;2023-03-01T07:15:42;95142.28;;;21.06;49.87
43217;BME280;60511;42.686;23.300;2023-03-01T07:17:42;95144.88;;;20.94;49.73
43217;BME280;60511;42.686;23.300;2023-03-01T07:19:44;95154.41;;;20.91;50.46
43217;BME280;60511;42.686;23.300;2023-03-01T07:21:45;95137.84;;;20.80;51.24
43217;BME280;60511;42.686;23.300;2023-03-01T07:23:47;95171.31;;;21.00;51.26
43217;BME280;60511;42.686;23.300;2023-03-01T07:25:54;95151.50;;;21.05;51.15
43217;BME280;60511;42.686;23.300;2023-03-01T07:27:54;95149.34;;;20.90;50.94
43217;BME280;60511;42.686;23.300;2023-03-01T07:29:55;95162.44;;;21.00;49.71
43217;BME280;60511;42.686;23.300;2023-03-01T07:31:55;95161.38;;;21.22;48.82
43217;BME280;60511;42.686;23.300;2023-03-01T07:33:56;95165.47;;;21.28;48.79
43217;BME280;60511;42.686;23.300;2023-03-01T07:35:59;95139.75;;;21.10;48.56
43217;BME280;60511;42.686;23.300;2023-03-01T07:38:00;95145.38;;;21.25;47.68
43217;BME280;60511;42.686;23.300;2023-03-01T07:40:00;95113.59;;;21.19;46.96
43217;BME280;60511;42.686;23.300;2023-03-01T07:42:00;95173.56;;;21.58;47.36
43217;BME280;60511;42.686;23.300;2023-03-01T07:44:01;95175.38;;;21.45;48.50
43217;BME280;60511;42.686;23.300;2023-03-01T07:46:02;95156.69;;;21.40;49.45
43217;BME280;60511;42.686;23.300;2023-03-01T07:48:02;95121.84;;;21.14;50.12
43217;BME280;60511;42.686;23.300;2023-03-01T07:50:03;95024.78;;;20.59;48.61
43217;BME280;60511;42.686;23.300;2023-03-01T07:52:04;95032.38;;;20.66;48.93
43217;BME280;60511;42.686;23.300;2023-03-01T07:54:05;95144.63;;;21.46;48.33
43217;BME280;60511;42.686;23.300;2023-03-01T07:56:12;95116.84;;;21.24;50.12
43217;BME280;60511;42.686;23.300;2023-03-01T07:58:13;95093.44;;;21.25;47.35
43217;BME280;60511;42.686;23.300;2023-03-01T08:00:13;94969.72;;;20.27;48.48
43217;BME280;60511;42.686;23.300;2023-03-01T08:02:15;95132.63;;;21.35;49.10
43217;BME280;60511;42.686;23.300;2023-03-01T08:04:15;95114.72;;;21.39;48.35
43217;BME280;60511;42.686;23.300;2023-03-01T08:06:16;95139.78;;;21.60;46.32
43217;BME280;60511;42.686;23.300;2023-03-01T08:08:17;94952.16;;;20.59;45.86
43217;BME280;60511;42.686;23.300;2023-03-01T08:10:18;95105.88;;;21.80;44.84
43217;BME280;60511;42.686;23.300;2023-03-01T08:12:18;95019.09;;;21.12;45.43
43217;BME280;60511;42.686;23.300;2023-03-01T08:14:18;94965.84;;;20.96;45.32
43217;BME280;60511;42.686;23.300;2023-03-01T08:16:19;95133.41;;;22.07;44.43
43217;BME280;60511;42.686;23.300;2023-03-01T08:18:20;95106.59;;;21.69;46.86
43217;BME280;60511;42.686;23.300;2023-03-01T08:20:21;95165.94;;;21.81;47.88
43217;BME280;60511;42.686;23.300;2023-03-01T08:22:21;95134.66;;;21.89;45.58
43217;BME280;60511;42.686;23.300;2023-03-01T08:24:22;95027.16;;;21.12;45.06
43217;BME280;60511;42.686;23.300;2023-03-01T08:26:22;95149.25;;;21.87;46.72
43217;BME280;60511;42.686;23.300;2023-03-01T08:28:23;95128.34;;;21.84;46.71
43217;BME280;60511;42.686;23.300;2023-03-01T08:30:23;95011.16;;;21.15;45.32
43217;BME280;60511;42.686;23.300;2023-03-01T08:32:24;94940.31;;;20.81;45.56
43217;BME280;60511;42.686;23.300;2023-03-01T08:34:24;95100.03;;;21.78;45.25
43217;BME280;60511;42.686;23.300;2023-03-01T08:36:27;95135.38;;;21.98;46.74
43217;BME280;60511;42.686;23.300;2023-03-01T08:38:28;95113.03;;;21.97;45.13
43217;BME280;60511;42.686;23.300;2023-03-01T08:40:28;94995.13;;;21.40;43.37
43217;BME280;60511;42.686;23.300;2023-03-01T08:42:29;95132.75;;;22.43;43.56
43217;BME280;60511;42.686;23.300;2023-03-01T08:44:29;95016.06;;;21.55;45.83
43217;BME280;60511;42.686;23.300;2023-03-01T08:46:40;95134.66;;;22.43;46.15
43217;BME280;60511;42.686;23.300;2023-03-01T08:48:41;95140.41;;;22.41;45.56
43217;BME280;60511;42.686;23.300;2023-03-01T08:50:43;95061.53;;;21.90;44.25
43217;BME280;60511;42.686;23.300;2023-03-01T08:52:43;95122.59;;;22.28;45.53
43217;BME280;60511;42.686;23.300;2023-03-01T08:54:43;95091.50;;;22.10;45.10
43217;BME280;60511;42.686;23.300;2023-03-01T08:56:44;95095.97;;;22.05;43.84
43217;BME280;60511;42.686;23.300;2023-03-01T08:58:47;94968.72;;;21.12;45.58
43217;BME280;60511;42.686;23.300;2023-03-01T09:00:47;95083.25;;;21.94;45.33
43217;BME280;60511;42.686;23.300;2023-03-01T09:02:48;95139.09;;;22.26;45.26
43217;BME280;60511;42.686;23.300;2023-03-01T09:04:48;95145.84;;;22.33;45.22
43217;BME280;60511;42.686;23.300;2023-03-01T09:06:48;95115.44;;;22.11;44.66
43217;BME280;60511;42.686;23.300;2023-03-01T09:08:50;95004.59;;;21.46;46.21
43217;BME280;60511;42.686;23.300;2023-03-01T09:10:50;95144.41;;;22.35;44.05
43217;BME280;60511;42.686;23.300;2023-03-01T09:12:51;95112.84;;;22.36;45.34
43217;BME280;60511;42.686;23.300;2023-03-01T09:14:52;95115.75;;;22.43;43.36
43217;BME280;60511;42.686;23.300;2023-03-01T09:16:52;95112.06;;;22.35;43.99
43217;BME280;60511;42.686;23.300;2023-03-01T09:18:54;95137.28;;;22.52;43.78
43217;BME280;60511;42.686;23.300;2023-03-01T09:21:06;95107.59;;;22.18;47.37
43217;BME280;60511;42.686;23.300;2023-03-01T09:23:07;95143.31;;;22.15;46.44
43217;BME280;60511;42.686;23.300;2023-03-01T09:25:07;95133.03;;;22.08;48.24
43217;BME280;60511;42.686;23.300;2023-03-01T09:27:08;95126.28;;;22.02;46.72
43217;BME280;60511;42.686;23.300;2023-03-01T09:29:09;95094.75;;;22.03;47.99
43217;BME280;60511;42.686;23.300;2023-03-01T09:31:10;95127.66;;;22.08;46.69
43217;BME280;60511;42.686;23.300;2023-03-01T09:33:12;95127.22;;;22.19;46.38
43217;BME280;60511;42.686;23.300;2023-03-01T09:35:14;95114.06;;;22.05;46.55
43217;BME280;60511;42.686;23.300;2023-03-01T09:37:15;95100.47;;;22.01;47.16
43217;BME280;60511;42.686;23.300;2023-03-01T09:39:15;95126.75;;;22.25;46.22
43217;BME280;60511;42.686;23.300;2023-03-01T09:43:35;95113.63;;;22.36;46.06
43217;BME280;60511;42.686;23.300;2023-03-01T09:45:41;95126.03;;;22.50;45.06
43217;BME280;60511;42.686;23.300;2023-03-01T09:47:44;95092.16;;;22.40;44.09
43217;BME280;60511;42.686;23.300;2023-03-01T09:50:02;95080.75;;;22.22;45.51
43217;BME280;60511;42.686;23.300;2023-03-01T09:52:25;95116.00;;;22.38;46.72
43217;BME280;60511;42.686;23.300;2023-03-01T09:54:27;94973.66;;;21.31;46.39
43217;BME280;60511;42.686;23.300;2023-03-01T09:56:46;95050.72;;;21.78;46.90
43217;BME280;60511;42.686;23.300;2023-03-01T09:58:53;95071.03;;;22.08;46.12
43217;BME280;60511;42.686;23.300;2023-03-01T10:00:57;95070.97;;;21.84;48.34
43217;BME280;60511;42.686;23.300;2023-03-01T10:03:27;95090.59;;;22.05;47.43
43217;BME280;60511;42.686;23.300;2023-03-01T10:05:47;95075.09;;;22.15;48.30
43217;BME280;60511;42.686;23.300;2023-03-01T10:07:59;95090.63;;;22.18;47.16
43217;BME280;60511;42.686;23.300;2023-03-01T10:10:01;95070.72;;;22.10;46.04
43217;BME280;60511;42.686;23.300;2023-03-01T10:12:10;95114.06;;;22.05;46.72
43217;BME280;60511;42.686;23.300;2023-03-01T10:15:34;95095.19;;;22.05;48.79
43217;BME280;60511;42.686;23.300;2023-03-01T10:19:39;95099.13;;;22.41;45.81
43217;BME280;60511;42.686;23.300;2023-03-01T10:21:44;95092.16;;;22.06;46.70
43217;BME280;60511;42.686;23.300;2023-03-01T10:23:46;95069.34;;;22.04;46.23
43217;BME280;60511;42.686;23.300;2023-03-01T10:32:28;95062.69;;;21.89;49.18
43217;BME280;60511;42.686;23.300;2023-03-01T10:34:31;95105.56;;;22.15;46.62
43217;BME280;60511;42.686;23.300;2023-03-01T10:36:33;95071.53;;;22.23;46.94
43217;BME280;60511;42.686;23.300;2023-03-01T10:38:53;95081.84;;;22.42;46.89
43217;BME280;60511;42.686;23.300;2023-03-01T10:41:14;95068.25;;;22.51;46.74
43217;BME280;60511;42.686;23.300;2023-03-01T10:43:15;95082.75;;;22.58;43.55
43217;BME280;60511;42.686;23.300;2023-03-01T10:47:34;95051.72;;;22.64;45.30
43217;BME280;60511;42.686;23.300;2023-03-01T10:49:35;95060.03;;;22.59;45.64
43217;BME280;60511;42.686;23.300;2023-03-01T10:51:35;95075.91;;;22.61;44.98
43217;BME280;60511;42.686;23.300;2023-03-01T10:55:39;95092.25;;;22.31;47.06
43217;BME280;60511;42.686;23.300;2023-03-01T10:57:40;95039.59;;;22.13;45.67
43217;BME280;60511;42.686;23.300;2023-03-01T10:59:41;95053.53;;;22.15;46.99
43217;BME280;60511;42.686;23.300;2023-03-01T11:01:42;95062.19;;;22.20;47.38
43217;BME280;60511;42.686;23.300;2023-03-01T11:03:42;95030.84;;;22.03;46.79
43217;BME280;60511;42.686;23.300;2023-03-01T11:05:55;95014.44;;;22.08;47.42
43217;BME280;60511;42.686;23.300;2023-03-01T11:07:57;94889.19;;;21.36;45.35
43217;BME280;60511;42.686;23.300;2023-03-01T11:09:58;95068.50;;;22.58;45.20